sensor_id;sensor_type;location;lat;lon;timestamp;pressure;altitude;pressure_sealevel;temperature;humidity
52949;BME280;38812;50.942;3.644;2023-06-10T00:01:49;101169.28;;;20.83;94.21
52949;BME280;38812;50.942;3.644;2023-06-10T00:04:15;101171.59;;;20.90;93.37
52949;BME280;38812;50.942;3.644;2023-06-10T00:06:43;101176.97;;;21.04;91.66
52949;BME280;38812;50.942;3.644;2023-06-10T00:09:08;101177.38;;;20.98;92.08
52949;BME280;38812;50.942;3.644;2023-06-10T00:11:35;101182.09;;;20.93;92.97
52949;BME280;38812;50.942;3.644;2023-06-10T00:14:01;101178.31;;;20.97;91.96
52949;BME280;38812;50.942;3.644;2023-06-10T00:16:27;101179.00;;;20.84;93.55
52949;BME280;38812;50.942;3.644;2023-06-10T00:18:53;101180.44;;;20.76;95.37
52949;BME280;38812;50.942;3.644;2023-06-10T00:21:21;101185.25;;;20.69;96.68
52949;BME280;38812;50.942;3.644;2023-06-10T00:23:46;101186.44;;;20.79;94.49
52949;BME280;38812;50.942;3.644;2023-06-10T00:26:12;101178.38;;;20.65;97.37
52949;BME280;38812;50.942;3.644;2023-06-10T00:28:37;101183.88;;;20.62;98.97
52949;BME280;38812;50.942;3.644;2023-06-10T00:31:02;101185.94;;;20.57;99.21
52949;BME280;38812;50.942;3.644;2023-06-10T00:33:29;101187.56;;;20.60;98.22
52949;BME280;38812;50.942;3.644;2023-06-10T00:35:55;101180.59;;;20.57;98.47
52949;BME280;38812;50.942;3.644;2023-06-10T00:38:20;101186.81;;;20.58;99.82
52949;BME280;38812;50.942;3.644;2023-06-10T00:40:45;101189.03;;;20.65;97.79
52949;BME280;38812;50.942;3.644;2023-06-10T00:43:11;101191.78;;;20.64;98.15
52949;BME280;38812;50.942;3.644;2023-06-10T00:45:36;101191.72;;;20.65;99.18
52949;BME280;38812;50.942;3.644;2023-06-10T00:48:03;101192.34;;;20.55;100.00
52949;BME280;38812;50.942;3.644;2023-06-10T00:50:29;101193.19;;;20.55;99.72
52949;BME280;38812;50.942;3.644;2023-06-10T00:52:56;101175.97;;;20.45;100.00
52949;BME280;38812;50.942;3.644;2023-06-10T00:55:22;101187.19;;;20.51;100.00
52949;BME280;38812;50.942;3.644;2023-06-10T00:57:48;101187.78;;;20.41;100.00
52949;BME280;38812;50.942;3.644;2023-06-10T01:00:15;101183.22;;;20.43;100.00
52949;BME280;38812;50.942;3.644;2023-06-10T01:02:41;101188.28;;;20.47;100.00
52949;BME280;38812;50.942;3.644;2023-06-10T01:05:08;101189.56;;;20.40;100.00
52949;BME280;38812;50.942;3.644;2023-06-10T01:10:50;101193.59;;;20.32;100.00
52949;BME280;38812;50.942;3.644;2023-06-10T01:13:16;101192.06;;;20.28;100.00
52949;BME280;38812;50.942;3.644;2023-06-10T01:15:43;101194.63;;;20.13;100.00
52949;BME280;38812;50.942;3.644;2023-06-10T01:18:09;101184.38;;;20.06;100.00
52949;BME280;38812;50.942;3.644;2023-06-10T01:20:41;101198.66;;;20.05;100.00
52949;BME280;38812;50.942;3.644;2023-06-10T01:23:08;101192.78;;;19.98;100.00
52949;BME280;38812;50.942;3.644;2023-06-10T01:25:38;101198.34;;;20.11;100.00
52949;BME280;38812;50.942;3.644;2023-06-10T01:28:14;101187.75;;;20.09;100.00
52949;BME280;38812;50.942;3.644;2023-06-10T01:30:48;101197.63;;;20.07;100.00
52949;BME280;38812;50.942;3.644;2023-06-10T01:33:19;101190.63;;;19.89;100.00
52949;BME280;38812;50.942;3.644;2023-06-10T01:35:47;101187.47;;;19.98;100.00
52949;BME280;38812;50.942;3.644;2023-06-10T01:38:14;101184.53;;;19.87;100.00
52949;BME280;38812;50.942;3.644;2023-06-10T01:40:40;101187.13;;;19.89;100.00
52949;BME280;38812;50.942;3.644;2023-06-10T01:43:06;101193.63;;;19.83;100.00
52949;BME280;38812;50.942;3.644;2023-06-10T01:45:31;101188.69;;;19.75;100.00
52949;BME280;38812;50.942;3.644;2023-06-10T01:47:56;101193.59;;;19.67;100.00
52949;BME280;38812;50.942;3.644;2023-06-10T01:50:22;101194.94;;;19.59;100.00
52949;BME280;38812;50.942;3.644;2023-06-10T01:52:47;101192.13;;;19.44;100.00
52949;BME280;38812;50.942;3.644;2023-06-10T01:55:13;101196.44;;;19.47;100.00
52949;BME280;38812;50.942;3.644;2023-06-10T01:57:38;101199.47;;;19.39;100.00
52949;BME280;38812;50.942;3.644;2023-06-10T02:00:04;101202.53;;;19.32;100.00
52949;BME280;38812;50.942;3.644;2023-06-10T02:02:29;101200.28;;;19.24;100.00
52949;BME280;38812;50.942;3.644;2023-06-10T02:04:55;101198.78;;;19.18;100.00
52949;BME280;38812;50.942;3.644;2023-06-10T02:07:20;101197.59;;;19.07;100.00
52949;BME280;38812;50.942;3.644;2023-06-10T02:09:45;101205.75;;;19.04;100.00
52949;BME280;38812;50.942;3.644;2023-06-10T02:12:11;101206.91;;;18.98;100.00
52949;BME280;38812;50.942;3.644;2023-06-10T02:14:36;101209.75;;;18.95;100.00
52949;BME280;38812;50.942;3.644;2023-06-10T02:17:02;101211.38;;;18.98;100.00
52949;BME280;38812;50.942;3.644;2023-06-10T02:19:27;101206.50;;;18.89;100.00
52949;BME280;38812;50.942;3.644;2023-06-10T02:21:53;101216.06;;;18.93;100.00
52949;BME280;38812;50.942;3.644;2023-06-10T02:24:18;101215.13;;;18.76;100.00
52949;BME280;38812;50.942;3.644;2023-06-10T02:26:44;101212.09;;;18.65;100.00
52949;BME280;38812;50.942;3.644;2023-06-10T02:29:10;101212.88;;;18.48;100.00
52949;BME280;38812;50.942;3.644;2023-06-10T02:31:36;101216.16;;;18.36;100.00
52949;BME280;38812;50.942;3.644;2023-06-10T02:34:02;101217.63;;;18.42;100.00
52949;BME280;38812;50.942;3.644;2023-06-10T02:36:29;101208.66;;;18.26;100.00
52949;BME280;38812;50.942;3.644;2023-06-10T02:38:54;101210.84;;;18.18;100.00
52949;BME280;38812;50.942;3.644;2023-06-10T02:41:20;101208.53;;;18.10;100.00
52949;BME280;38812;50.942;3.644;2023-06-10T02:43:47;101210.13;;;18.14;100.00
52949;BME280;38812;50.942;3.644;2023-06-10T02:46:12;101205.28;;;18.03;100.00
52949;BME280;38812;50.942;3.644;2023-06-10T02:48:42;101214.84;;;18.07;100.00
52949;BME280;38812;50.942;3.644;2023-06-10T02:51:08;101216.28;;;17.96;100.00
52949;BME280;38812;50.942;3.644;2023-06-10T02:53:33;101218.56;;;18.03;100.00
52949;BME280;38812;50.942;3.644;2023-06-10T02:55:59;101220.28;;;17.86;100.00
52949;BME280;38812;50.942;3.644;2023-06-10T02:58:24;101221.91;;;17.69;100.00
52949;BME280;38812;50.942;3.644;2023-06-10T03:00:51;101212.94;;;17.52;100.00
52949;BME280;38812;50.942;3.644;2023-06-10T03:03:16;101210.66;;;17.63;100.00
52949;BME280;38812;50.942;3.644;2023-06-10T03:05:42;101216.28;;;17.55;100.00
52949;BME280;38812;50.942;3.644;2023-06-10T03:08:07;101215.34;;;17.56;100.00
52949;BME280;38812;50.942;3.644;2023-06-10T03:10:32;101207.81;;;17.27;100.00
52949;BME280;38812;50.942;3.644;2023-06-10T03:12:58;101213.50;;;17.18;100.00
52949;BME280;38812;50.942;3.644;2023-06-10T03:15:24;101216.34;;;17.13;100.00
52949;BME280;38812;50.942;3.644;2023-06-10T03:17:49;101211.81;;;16.95;100.00
52949;BME280;38812;50.942;3.644;2023-06-10T03:20:15;101211.94;;;16.92;100.00
52949;BME280;38812;50.942;3.644;2023-06-10T03:22:42;101215.28;;;16.75;100.00
52949;BME280;38812;50.942;3.644;2023-06-10T03:25:08;101216.97;;;16.77;100.00
52949;BME280;38812;50.942;3.644;2023-06-10T03:27:42;101220.66;;;16.73;100.00
52949;BME280;38812;50.942;3.644;2023-06-10T03:30:08;101222.78;;;16.65;100.00
52949;BME280;38812;50.942;3.644;2023-06-10T03:32:34;101222.00;;;16.62;100.00
52949;BME280;38812;50.942;3.644;2023-06-10T03:35:00;101226.03;;;16.49;100.00
52949;BME280;38812;50.942;3.644;2023-06-10T03:37:26;101224.50;;;16.43;100.00
52949;BME280;38812;50.942;3.644;2023-06-10T03:39:51;101225.31;;;16.45;100.00
52949;BME280;38812;50.942;3.644;2023-06-10T03:42:17;101228.75;;;16.47;100.00
52949;BME280;38812;50.942;3.644;2023-06-10T03:44:42;101232.47;;;16.43;100.00
52949;BME280;38812;50.942;3.644;2023-06-10T03:47:07;101233.13;;;16.48;100.00
52949;BME280;38812;50.942;3.644;2023-06-10T03:49:33;101230.22;;;16.32;100.00
52949;BME280;38812;50.942;3.644;2023-06-10T03:51:58;101227.75;;;16.28;100.00
52949;BME280;38812;50.942;3.644;2023-06-10T03:54:24;101223.63;;;16.21;100.00
52949;BME280;38812;50.942;3.644;2023-06-10T03:56:50;101220.03;;;16.22;100.00
52949;BME280;38812;50.942;3.644;2023-06-10T03:59:15;101231.31;;;16.27;100.00
52949;BME280;38812;50.942;3.644;2023-06-10T04:01:41;101233.56;;;16.37;100.00
52949;BME280;38812;50.942;3.644;2023-06-10T04:04:07;101223.88;;;16.36;100.00
52949;BME280;38812;50.942;3.644;2023-06-10T04:06:32;101232.69;;;16.37;100.00
52949;BME280;38812;50.942;3.644;2023-06-10T04:08:57;101229.34;;;16.32;100.00
52949;BME280;38812;50.942;3.644;2023-06-10T04:11:24;101229.34;;;16.32;100.00
52949;BME280;38812;50.942;3.644;2023-06-10T04:13:49;101242.22;;;16.42;100.00
52949;BME280;38812;50.942;3.644;2023-06-10T04:16:15;101246.59;;;16.43;100.00
52949;BME280;38812;50.942;3.644;2023-06-10T04:18:41;101248.22;;;16.46;100.00
52949;BME280;38812;50.942;3.644;2023-06-10T04:21:07;101245.69;;;16.44;100.00
52949;BME280;38812;50.942;3.644;2023-06-10T04:23:33;101254.81;;;16.59;100.00
52949;BME280;38812;50.942;3.644;2023-06-10T04:25:58;101256.53;;;16.60;100.00
52949;BME280;38812;50.942;3.644;2023-06-10T04:28:24;101247.50;;;16.66;100.00
52949;BME280;38812;50.942;3.644;2023-06-10T04:30:50;101255.47;;;16.88;100.00
52949;BME280;38812;50.942;3.644;2023-06-10T04:33:15;101249.78;;;16.97;100.00
52949;BME280;38812;50.942;3.644;2023-06-10T04:35:41;101258.19;;;17.08;100.00
52949;BME280;38812;50.942;3.644;2023-06-10T04:38:07;101256.84;;;17.18;100.00
52949;BME280;38812;50.942;3.644;2023-06-10T04:40:32;101261.03;;;17.24;100.00
52949;BME280;38812;50.942;3.644;2023-06-10T04:42:58;101258.53;;;17.41;100.00
52949;BME280;38812;50.942;3.644;2023-06-10T04:45:23;101255.22;;;17.56;100.00
52949;BME280;38812;50.942;3.644;2023-06-10T04:47:49;101259.41;;;17.62;100.00
52949;BME280;38812;50.942;3.644;2023-06-10T04:50:14;101260.19;;;17.64;100.00
52949;BME280;38812;50.942;3.644;2023-06-10T04:52:40;101254.00;;;17.65;100.00
52949;BME280;38812;50.942;3.644;2023-06-10T04:55:09;101248.41;;;17.71;100.00
52949;BME280;38812;50.942;3.644;2023-06-10T04:57:35;101265.41;;;17.87;100.00
52949;BME280;38812;50.942;3.644;2023-06-10T05:00:00;101254.78;;;18.06;100.00
52949;BME280;38812;50.942;3.644;2023-06-10T05:02:25;101264.75;;;18.40;100.00
52949;BME280;38812;50.942;3.644;2023-06-10T05:04:51;101259.31;;;18.62;100.00
52949;BME280;38812;50.942;3.644;2023-06-10T05:07:16;101255.22;;;18.91;100.00
52949;BME280;38812;50.942;3.644;2023-06-10T05:09:41;101256.28;;;19.40;100.00
52949;BME280;38812;50.942;3.644;2023-06-10T05:12:07;101244.75;;;19.91;100.00
52949;BME280;38812;50.942;3.644;2023-06-10T05:14:34;101256.81;;;20.78;100.00
52949;BME280;38812;50.942;3.644;2023-06-10T05:16:59;101236.22;;;21.26;100.00
52949;BME280;38812;50.942;3.644;2023-06-10T05:19:24;101246.31;;;22.09;100.00
52949;BME280;38812;50.942;3.644;2023-06-10T05:21:50;101253.31;;;23.21;100.00
52949;BME280;38812;50.942;3.644;2023-06-10T05:24:15;101252.13;;;24.15;99.31
52949;BME280;38812;50.942;3.644;2023-06-10T05:26:41;101250.56;;;24.49;100.00
52949;BME280;38812;50.942;3.644;2023-06-10T05:29:07;101248.88;;;25.09;99.05
52949;BME280;38812;50.942;3.644;2023-06-10T05:31:34;101246.69;;;25.49;90.85
52949;BME280;38812;50.942;3.644;2023-06-10T05:33:59;101254.00;;;25.82;93.84
52949;BME280;38812;50.942;3.644;2023-06-10T05:36:25;101246.16;;;26.01;85.07
52949;BME280;38812;50.942;3.644;2023-06-10T05:38:51;101249.59;;;25.92;83.84
52949;BME280;38812;50.942;3.644;2023-06-10T05:41:17;101255.72;;;26.50;84.08
52949;BME280;38812;50.942;3.644;2023-06-10T05:43:42;101252.94;;;26.18;86.88
52949;BME280;38812;50.942;3.644;2023-06-10T05:46:08;101260.03;;;26.30;77.89
52949;BME280;38812;50.942;3.644;2023-06-10T05:48:33;101263.81;;;26.61;78.87
52949;BME280;38812;50.942;3.644;2023-06-10T05:50:58;101258.16;;;26.64;72.58
52949;BME280;38812;50.942;3.644;2023-06-10T05:53:24;101265.97;;;26.67;75.32
52949;BME280;38812;50.942;3.644;2023-06-10T05:55:49;101258.88;;;26.66;71.52
52949;BME280;38812;50.942;3.644;2023-06-10T05:58:15;101261.06;;;26.83;76.68
52949;BME280;38812;50.942;3.644;2023-06-10T06:00:41;101267.44;;;26.82;72.83
52949;BME280;38812;50.942;3.644;2023-06-10T06:03:07;101266.47;;;26.72;73.48
52949;BME280;38812;50.942;3.644;2023-06-10T06:05:36;101258.19;;;26.53;75.61
52949;BME280;38812;50.942;3.644;2023-06-10T06:08:06;101257.19;;;26.09;79.04
52949;BME280;38812;50.942;3.644;2023-06-10T06:10:32;101267.97;;;25.52;77.98
52949;BME280;38812;50.942;3.644;2023-06-10T06:12:57;101268.78;;;25.06;86.57
52949;BME280;38812;50.942;3.644;2023-06-10T06:15:23;101266.13;;;24.57;88.72
52949;BME280;38812;50.942;3.644;2023-06-10T06:17:48;101270.38;;;24.10;97.27
52949;BME280;38812;50.942;3.644;2023-06-10T06:20:13;101262.84;;;23.65;96.85
52949;BME280;38812;50.942;3.644;2023-06-10T06:22:39;101260.97;;;23.40;98.02
52949;BME280;38812;50.942;3.644;2023-06-10T06:25:05;101276.34;;;23.50;100.00
52949;BME280;38812;50.942;3.644;2023-06-10T06:27:31;101265.59;;;23.50;100.00
52949;BME280;38812;50.942;3.644;2023-06-10T06:29:56;101271.47;;;23.57;100.00
52949;BME280;38812;50.942;3.644;2023-06-10T06:32:21;101263.22;;;23.33;100.00
52949;BME280;38812;50.942;3.644;2023-06-10T06:34:48;101276.94;;;23.41;100.00
52949;BME280;38812;50.942;3.644;2023-06-10T06:37:21;101262.56;;;23.30;100.00
52949;BME280;38812;50.942;3.644;2023-06-10T06:39:46;101280.38;;;23.43;100.00
52949;BME280;38812;50.942;3.644;2023-06-10T06:42:12;101282.19;;;23.57;100.00
52949;BME280;38812;50.942;3.644;2023-06-10T06:44:37;101275.97;;;23.56;100.00
52949;BME280;38812;50.942;3.644;2023-06-10T06:47:03;101281.31;;;23.56;100.00
52949;BME280;38812;50.942;3.644;2023-06-10T06:49:28;101286.13;;;23.64;100.00
52949;BME280;38812;50.942;3.644;2023-06-10T06:51:53;101286.38;;;23.74;98.98
52949;BME280;38812;50.942;3.644;2023-06-10T06:54:19;101290.38;;;23.81;98.54
52949;BME280;38812;50.942;3.644;2023-06-10T06:56:44;101286.28;;;23.88;98.74
52949;BME280;38812;50.942;3.644;2023-06-10T06:59:09;101285.97;;;23.92;99.88
52949;BME280;38812;50.942;3.644;2023-06-10T07:01:35;101294.22;;;24.02;99.22
52949;BME280;38812;50.942;3.644;2023-06-10T07:04:00;101288.75;;;24.16;100.00
52949;BME280;38812;50.942;3.644;2023-06-10T07:06:26;101291.63;;;24.13;96.15
52949;BME280;38812;50.942;3.644;2023-06-10T07:08:51;101290.78;;;24.38;95.01
52949;BME280;38812;50.942;3.644;2023-06-10T07:11:16;101294.13;;;24.42;96.57
52949;BME280;38812;50.942;3.644;2023-06-10T07:13:42;101299.56;;;24.53;93.96
52949;BME280;38812;50.942;3.644;2023-06-10T07:16:08;101291.59;;;24.64;93.39
52949;BME280;38812;50.942;3.644;2023-06-10T07:18:33;101296.00;;;24.65;93.46
52949;BME280;38812;50.942;3.644;2023-06-10T07:20:59;101302.84;;;24.69;91.99
52949;BME280;38812;50.942;3.644;2023-06-10T07:23:24;101297.78;;;24.77;91.90
52949;BME280;38812;50.942;3.644;2023-06-10T07:25:50;101302.28;;;24.77;85.23
52949;BME280;38812;50.942;3.644;2023-06-10T07:28:15;101300.53;;;24.88;90.75
52949;BME280;38812;50.942;3.644;2023-06-10T07:30:40;101303.72;;;24.93;85.21
52949;BME280;38812;50.942;3.644;2023-06-10T07:33:06;101299.59;;;25.13;91.17
52949;BME280;38812;50.942;3.644;2023-06-10T07:35:33;101294.91;;;25.28;86.31
52949;BME280;38812;50.942;3.644;2023-06-10T07:37:58;101308.50;;;25.38;87.43
52949;BME280;38812;50.942;3.644;2023-06-10T07:40:24;101302.75;;;25.31;87.14
52949;BME280;38812;50.942;3.644;2023-06-10T07:42:49;101304.56;;;25.54;88.17
52949;BME280;38812;50.942;3.644;2023-06-10T07:45:14;101313.84;;;25.61;84.27
52949;BME280;38812;50.942;3.644;2023-06-10T07:47:40;101306.13;;;25.57;78.28
52949;BME280;38812;50.942;3.644;2023-06-10T07:50:06;101306.75;;;25.60;81.10
52949;BME280;38812;50.942;3.644;2023-06-10T07:52:31;101304.38;;;25.69;78.56
52949;BME280;38812;50.942;3.644;2023-06-10T07:54:57;101295.50;;;25.90;78.92
52949;BME280;38812;50.942;3.644;2023-06-10T07:57:22;101291.19;;;25.99;77.66
52949;BME280;38812;50.942;3.644;2023-06-10T07:59:47;101307.72;;;26.06;78.53
52949;BME280;38812;50.942;3.644;2023-06-10T08:02:14;101302.00;;;26.21;76.75
52949;BME280;38812;50.942;3.644;2023-06-10T08:04:39;101303.50;;;26.37;77.19
52949;BME280;38812;50.942;3.644;2023-06-10T08:07:05;101303.28;;;26.40;73.25
52949;BME280;38812;50.942;3.644;2023-06-10T08:09:30;101308.91;;;26.37;73.89
52949;BME280;38812;50.942;3.644;2023-06-10T08:11:55;101304.97;;;26.52;74.83
52949;BME280;38812;50.942;3.644;2023-06-10T08:14:21;101299.06;;;26.69;71.39
52949;BME280;38812;50.942;3.644;2023-06-10T08:16:46;101304.66;;;26.88;74.70
52949;BME280;38812;50.942;3.644;2023-06-10T08:19:12;101310.06;;;27.00;67.71
52949;BME280;38812;50.942;3.644;2023-06-10T08:21:37;101309.94;;;27.33;67.86
52949;BME280;38812;50.942;3.644;2023-06-10T08:24:08;101307.81;;;27.48;65.11
52949;BME280;38812;50.942;3.644;2023-06-10T08:26:34;101300.88;;;27.66;65.81
52949;BME280;38812;50.942;3.644;2023-06-10T08:28:59;101303.19;;;28.01;65.01
52949;BME280;38812;50.942;3.644;2023-06-10T08:31:25;101302.81;;;28.66;61.65
52949;BME280;38812;50.942;3.644;2023-06-10T08:33:50;101303.22;;;29.12;57.64
52949;BME280;38812;50.942;3.644;2023-06-10T08:36:15;101305.78;;;29.81;56.10
52949;BME280;38812;50.942;3.644;2023-06-10T08:38:41;101306.00;;;29.97;56.56
52949;BME280;38812;50.942;3.644;2023-06-10T08:41:06;101295.19;;;30.44;54.47
52949;BME280;38812;50.942;3.644;2023-06-10T08:43:45;101309.91;;;30.31;54.45
52949;BME280;38812;50.942;3.644;2023-06-10T08:46:14;101307.03;;;30.43;51.74
52949;BME280;38812;50.942;3.644;2023-06-10T08:48:42;101313.25;;;30.16;51.27
52949;BME280;38812;50.942;3.644;2023-06-10T08:51:11;101303.56;;;30.13;52.48
52949;BME280;38812;50.942;3.644;2023-06-10T08:53:38;101300.03;;;29.93;50.80
52949;BME280;38812;50.942;3.644;2023-06-10T08:56:09;101295.44;;;30.13;50.39
52949;BME280;38812;50.942;3.644;2023-06-10T08:58:35;101292.75;;;30.41;49.49
52949;BME280;38812;50.942;3.644;2023-06-10T09:01:07;101294.59;;;30.13;51.33
52949;BME280;38812;50.942;3.644;2023-06-10T09:03:33;101298.41;;;30.84;50.98
52949;BME280;38812;50.942;3.644;2023-06-10T09:06:00;101299.28;;;31.02;48.92
52949;BME280;38812;50.942;3.644;2023-06-10T09:08:27;101303.44;;;30.52;48.21
52949;BME280;38812;50.942;3.644;2023-06-10T09:10:53;101299.00;;;30.78;49.00
52949;BME280;38812;50.942;3.644;2023-06-10T09:13:18;101303.72;;;31.21;49.27
52949;BME280;38812;50.942;3.644;2023-06-10T09:15:44;101298.00;;;30.79;48.39
52949;BME280;38812;50.942;3.644;2023-06-10T09:18:11;101303.41;;;31.42;49.92
52949;BME280;38812;50.942;3.644;2023-06-10T09:20:38;101297.44;;;31.21;46.54
52949;BME280;38812;50.942;3.644;2023-06-10T09:23:04;101306.34;;;30.95;46.38
52949;BME280;38812;50.942;3.644;2023-06-10T09:25:35;101304.38;;;31.15;45.76
52949;BME280;38812;50.942;3.644;2023-06-10T09:28:02;101302.25;;;31.45;43.98
52949;BME280;38812;50.942;3.644;2023-06-10T09:30:33;101312.94;;;31.11;44.66
52949;BME280;38812;50.942;3.644;2023-06-10T09:33:01;101301.16;;;31.55;45.44
52949;BME280;38812;50.942;3.644;2023-06-10T09:35:27;101299.72;;;31.87;44.12
52949;BME280;38812;50.942;3.644;2023-06-10T09:37:55;101298.84;;;31.60;43.90
52949;BME280;38812;50.942;3.644;2023-06-10T09:40:20;101297.78;;;31.18;44.15
52949;BME280;38812;50.942;3.644;2023-06-10T09:42:46;101305.94;;;31.61;45.29
52949;BME280;38812;50.942;3.644;2023-06-10T09:45:19;101322.41;;;31.24;42.27
52949;BME280;38812;50.942;3.644;2023-06-10T09:47:46;101308.09;;;31.14;44.30
52949;BME280;38812;50.942;3.644;2023-06-10T09:50:12;101308.63;;;31.18;42.74
52949;BME280;38812;50.942;3.644;2023-06-10T09:52:38;101303.19;;;31.53;43.36
52949;BME280;38812;50.942;3.644;2023-06-10T09:55:04;101311.25;;;31.81;43.72
52949;BME280;38812;50.942;3.644;2023-06-10T09:57:33;101298.88;;;31.86;41.28
52949;BME280;38812;50.942;3.644;2023-06-10T09:59:59;101309.22;;;31.47;41.12
52949;BME280;38812;50.942;3.644;2023-06-10T10:02:24;101299.94;;;31.32;40.99
52949;BME280;38812;50.942;3.644;2023-06-10T10:04:50;101308.38;;;31.47;42.01
52949;BME280;38812;50.942;3.644;2023-06-10T10:07:15;101297.22;;;31.67;42.60
52949;BME280;38812;50.942;3.644;2023-06-10T10:09:41;101300.31;;;31.73;41.71
52949;BME280;38812;50.942;3.644;2023-06-10T10:12:09;101302.72;;;31.58;41.87
52949;BME280;38812;50.942;3.644;2023-06-10T10:14:36;101305.84;;;31.89;42.02
52949;BME280;38812;50.942;3.644;2023-06-10T10:17:11;101305.94;;;31.61;42.57
52949;BME280;38812;50.942;3.644;2023-06-10T10:19:50;101301.72;;;31.59;41.09
52949;BME280;38812;50.942;3.644;2023-06-10T10:22:22;101293.81;;;31.91;43.20
52949;BME280;38812;50.942;3.644;2023-06-10T10:24:50;101298.22;;;32.18;42.27
52949;BME280;38812;50.942;3.644;2023-06-10T10:28:23;101299.84;;;32.03;42.11
52949;BME280;38812;50.942;3.644;2023-06-10T10:30:23;101310.28;;;32.16;41.59
52949;BME280;38812;50.942;3.644;2023-06-10T10:35:21;101295.88;;;31.72;40.41
52949;BME280;38812;50.942;3.644;2023-06-10T10:37:50;101295.72;;;31.55;41.07
52949;BME280;38812;50.942;3.644;2023-06-10T10:40:17;101293.34;;;31.34;42.58
52949;BME280;38812;50.942;3.644;2023-06-10T10:42:43;101295.25;;;31.60;41.08
52949;BME280;38812;50.942;3.644;2023-06-10T10:45:09;101288.31;;;32.09;40.13
52949;BME280;38812;50.942;3.644;2023-06-10T10:47:36;101293.19;;;32.23;40.60
52949;BME280;38812;50.942;3.644;2023-06-10T10:50:15;101292.25;;;32.15;39.85
52949;BME280;38812;50.942;3.644;2023-06-10T10:53:01;101285.34;;;32.20;38.58
52949;BME280;38812;50.942;3.644;2023-06-10T10:55:28;101286.88;;;31.71;39.19
52949;BME280;38812;50.942;3.644;2023-06-10T10:57:58;101284.03;;;32.07;40.39
52949;BME280;38812;50.942;3.644;2023-06-10T11:00:27;101283.47;;;31.95;40.90
52949;BME280;38812;50.942;3.644;2023-06-10T11:02:52;101279.38;;;31.91;39.37
52949;BME280;38812;50.942;3.644;2023-06-10T11:05:37;101276.97;;;32.14;39.13
52949;BME280;38812;50.942;3.644;2023-06-10T11:08:03;101281.06;;;32.44;38.19
52949;BME280;38812;50.942;3.644;2023-06-10T11:10:37;101270.81;;;32.38;37.87
52949;BME280;38812;50.942;3.644;2023-06-10T11:13:10;101285.56;;;32.01;38.06
52949;BME280;38812;50.942;3.644;2023-06-10T11:15:46;101273.22;;;31.81;37.72
52949;BME280;38812;50.942;3.644;2023-06-10T11:18:28;101275.72;;;32.08;38.32
52949;BME280;38812;50.942;3.644;2023-06-10T11:21:03;101273.41;;;31.87;37.62
52949;BME280;38812;50.942;3.644;2023-06-10T11:31:27;101266.53;;;32.69;39.18
52949;BME280;38812;50.942;3.644;2023-06-10T11:36:19;101253.16;;;32.42;36.63
52949;BME280;38812;50.942;3.644;2023-06-10T11:38:44;101257.38;;;32.36;36.80
52949;BME280;38812;50.942;3.644;2023-06-10T11:41:11;101262.88;;;32.18;36.72
52949;BME280;38812;50.942;3.644;2023-06-10T11:43:40;101256.59;;;32.52;37.17
52949;BME280;38812;50.942;3.644;2023-06-10T11:46:07;101265.75;;;32.43;37.56
52949;BME280;38812;50.942;3.644;2023-06-10T11:48:33;101261.44;;;32.32;38.99
52949;BME280;38812;50.942;3.644;2023-06-10T11:50:59;101253.75;;;32.69;38.74
52949;BME280;38812;50.942;3.644;2023-06-10T11:53:25;101256.91;;;32.41;37.84
52949;BME280;38812;50.942;3.644;2023-06-10T11:55:50;101242.72;;;32.29;38.63
52949;BME280;38812;50.942;3.644;2023-06-10T11:58:17;101255.75;;;32.17;37.28
52949;BME280;38812;50.942;3.644;2023-06-10T12:00:47;101258.88;;;32.30;36.80
52949;BME280;38812;50.942;3.644;2023-06-10T12:03:14;101258.63;;;32.50;36.47
52949;BME280;38812;50.942;3.644;2023-06-10T12:05:39;101249.13;;;32.54;37.22
52949;BME280;38812;50.942;3.644;2023-06-10T12:08:11;101239.72;;;32.82;37.69
52949;BME280;38812;50.942;3.644;2023-06-10T12:10:43;101243.31;;;32.49;35.84
52949;BME280;38812;50.942;3.644;2023-06-10T12:13:09;101246.41;;;32.20;36.21
52949;BME280;38812;50.942;3.644;2023-06-10T12:15:35;101253.78;;;32.27;36.46
52949;BME280;38812;50.942;3.644;2023-06-10T12:18:01;101237.13;;;32.22;36.64
52949;BME280;38812;50.942;3.644;2023-06-10T12:20:32;101244.81;;;32.01;37.07
52949;BME280;38812;50.942;3.644;2023-06-10T12:23:09;101231.75;;;31.79;35.82
52949;BME280;38812;50.942;3.644;2023-06-10T12:25:34;101233.41;;;31.28;37.01
52949;BME280;38812;50.942;3.644;2023-06-10T12:28:02;101228.88;;;31.62;36.63
52949;BME280;38812;50.942;3.644;2023-06-10T12:30:28;101231.69;;;31.96;37.18
52949;BME280;38812;50.942;3.644;2023-06-10T12:32:54;101227.31;;;32.38;35.34
52949;BME280;38812;50.942;3.644;2023-06-10T12:35:25;101229.50;;;32.00;37.03
52949;BME280;38812;50.942;3.644;2023-06-10T12:37:58;101227.72;;;32.17;36.55
52949;BME280;38812;50.942;3.644;2023-06-10T12:40:30;101230.56;;;31.55;36.98
52949;BME280;38812;50.942;3.644;2023-06-10T12:42:56;101228.28;;;31.94;36.70
52949;BME280;38812;50.942;3.644;2023-06-10T12:45:31;101225.31;;;31.80;36.12
52949;BME280;38812;50.942;3.644;2023-06-10T12:50:35;101211.50;;;31.99;35.33
52949;BME280;38812;50.942;3.644;2023-06-10T12:53:02;101218.94;;;32.23;34.64
52949;BME280;38812;50.942;3.644;2023-06-10T12:55:28;101219.13;;;31.69;35.80
52949;BME280;38812;50.942;3.644;2023-06-10T12:57:53;101219.28;;;31.94;37.67
52949;BME280;38812;50.942;3.644;2023-06-10T13:00:20;101221.81;;;32.21;36.38
52949;BME280;38812;50.942;3.644;2023-06-10T13:02:46;101209.16;;;32.04;35.05